Roseville, Minnesota
Current Conditions -  °F | °C
As of 5:53 AM on Friday 24 Oct 2014 (Local Time) from KSTP Reporting Station
Clear Clear  
Wind Chill: 46°   Ceiling: Unl
Heat Index: 46°   Visibility: 7mi
Dew Point: 46°   Wind: 3mph
Humidity: 100%   Direction: 130°SE
Pressure: 29.93"   Gusts: NA
Location:  45.02°N, 93.15°W
Report Text: KSTP 241053Z 13003KT 7SM CLR 08/08 A2993 RMK AO2 SLP135 T00780078 $
Loading
Personal Weather Stations






























Interactive Weather Map
Tropical Storm Tracking
New forecast layout! Learn more

10-Day Weather Forecast

Advertisements
Track Severe Weather on mobile